Time;durP1;ratioP1;P1;durP2;ratioP2;P2;SDS_P1;SDS_P2;PMS_P1;PMS_P2;Temp;Humidity;BMP_temperature;BMP_pressure;BME280_temperature;BME280_humidity;BME280_pressure;Samples;Min_cycle;Max_cycle;Signal;HPM_P1;HPM_P2
2023/03/01 00:02:06;;;;;;;2.30;1.00;;;;;;;2.42;36.03;98558.56;5058171;28;20047;-64
2023/03/01 00:04:32;;;;;;;1.20;1.10;;;;;;;2.44;36.34;98552.25;5042714;28;20044;-64
2023/03/01 00:06:58;;;;;;;3.97;1.30;;;;;;;2.48;35.97;98543.16;5042811;28;20052;-63
2023/03/01 00:09:23;;;;;;;3.60;1.10;;;;;;;2.38;35.22;98546.72;5042683;28;20139;-62
2023/03/01 00:11:50;;;;;;;1.87;1.00;;;;;;;2.43;36.03;98549.78;5076350;28;20582;-64
2023/03/01 00:14:18;;;;;;;1.30;0.90;;;;;;;2.41;35.93;98534.19;5042603;28;20134;-64
2023/03/01 00:16:45;;;;;;;1.47;1.10;;;;;;;2.41;35.80;98541.22;5058979;28;20051;-63
2023/03/01 00:19:17;;;;;;;1.83;1.10;;;;;;;2.71;36.43;98544.59;5044560;28;20140;-63
2023/03/01 00:21:43;;;;;;;2.00;1.20;;;;;;;2.36;35.84;98546.00;5035850;28;20049;-63
2023/03/01 00:24:10;;;;;;;5.70;1.20;;;;;;;2.31;35.45;98540.34;5035728;28;20045;-64
2023/03/01 00:26:36;;;;;;;1.73;1.20;;;;;;;2.26;35.80;98545.16;5019120;28;20147;-62
2023/03/01 00:29:02;;;;;;;2.07;1.47;;;;;;;2.16;36.15;98532.03;5002619;28;20131;-64
2023/03/01 00:31:29;;;;;;;3.60;1.10;;;;;;;2.37;35.63;98545.06;5035655;28;20037;-64
2023/03/01 00:33:57;;;;;;;3.73;1.33;;;;;;;2.34;35.96;98540.91;5027188;28;20047;-67
2023/03/01 00:36:25;;;;;;;1.27;1.00;;;;;;;2.31;36.00;98541.19;5026691;28;20063;-68
2023/03/01 00:38:50;;;;;;;2.90;1.20;;;;;;;2.03;35.63;98541.06;5013321;28;20062;-64
2023/03/01 00:41:17;;;;;;;1.80;0.90;;;;;;;2.16;36.12;98539.88;5044418;28;20040;-65
2023/03/01 00:43:44;;;;;;;1.73;1.00;;;;;;;2.20;36.29;98528.16;5027526;28;20085;-63
2023/03/01 00:46:15;;;;;;;2.40;1.40;;;;;;;2.30;36.35;98531.66;5045753;28;20051;-64
2023/03/01 00:48:41;;;;;;;4.73;1.17;;;;;;;2.07;35.98;98530.22;5045311;28;20041;-64
2023/03/01 00:51:08;;;;;;;3.63;1.00;;;;;;;2.00;35.88;98533.50;5023134;28;20102;-64
2023/03/01 00:53:34;;;;;;;1.90;1.17;;;;;;;1.87;36.36;98528.47;5072042;28;20059;-62
2023/03/01 00:56:00;;;;;;;5.17;1.20;;;;;;;1.70;36.38;98531.69;5022239;28;20511;-64
2023/03/01 00:58:26;;;;;;;1.80;1.20;;;;;;;1.89;36.25;98528.34;5055882;28;20079;-62
2023/03/01 01:00:56;;;;;;;4.03;1.23;;;;;;;1.75;36.20;98532.13;5022784;28;20047;-63
2023/03/01 01:03:24;;;;;;;3.73;1.00;;;;;;;1.62;36.12;98536.72;5039764;28;20109;-64
2023/03/01 01:05:51;;;;;;;4.30;1.17;;;;;;;1.82;37.00;98538.50;5039114;28;20302;-62
2023/03/01 01:08:17;;;;;;;1.80;1.10;;;;;;;1.64;36.58;98530.44;5072930;28;20467;-63
2023/03/01 01:10:44;;;;;;;2.57;1.37;;;;;;;1.84;36.94;98539.19;5038715;28;20051;-63
2023/03/01 01:13:10;;;;;;;1.60;0.97;;;;;;;1.67;36.73;98535.41;5038729;28;20056;-62
2023/03/01 01:15:36;;;;;;;2.83;1.10;;;;;;;1.64;36.66;98538.28;5038635;28;20037;-62
2023/03/01 01:18:02;;;;;;;0.87;0.87;;;;;;;1.63;36.67;98533.16;5071630;28;20452;-67
2023/03/01 01:20:28;;;;;;;2.47;1.37;;;;;;;1.61;36.89;98520.19;5055009;28;20047;-64
2023/03/01 01:22:54;;;;;;;1.87;1.13;;;;;;;1.53;36.87;98529.66;5055414;28;20056;-63
2023/03/01 01:25:20;;;;;;;2.53;1.00;;;;;;;1.59;36.64;98532.59;5038809;28;20037;-62
2023/03/01 01:27:46;;;;;;;1.60;1.10;;;;;;;1.48;37.32;98523.97;5055071;28;20477;-63
2023/03/01 01:30:12;;;;;;;1.93;1.10;;;;;;;1.53;37.44;98529.66;5054914;28;20132;-63
2023/03/01 01:32:38;;;;;;;1.73;0.90;;;;;;;1.37;37.33;98530.09;5038217;28;20495;-62
2023/03/01 01:35:05;;;;;;;2.23;1.10;;;;;;;1.52;37.60;98530.63;5036580;28;20044;-65
2023/03/01 01:37:33;;;;;;;1.47;0.90;;;;;;;1.41;37.09;98515.00;5052496;28;20460;-64
2023/03/01 01:40:00;;;;;;;1.23;0.97;;;;;;;1.69;37.11;98522.19;5037216;28;20450;-61
2023/03/01 01:42:27;;;;;;;0.97;0.97;;;;;;;1.51;37.84;98518.47;5037628;28;20036;-65
2023/03/01 01:45:31;;;;;;;3.93;1.00;;;;;;;1.92;37.41;98520.22;5053862;28;20055;-63
2023/03/01 01:48:07;;;;;;;2.67;1.10;;;;;;;1.87;37.34;98518.00;5054431;28;20044;-65
2023/03/01 01:50:37;;;;;;;3.40;1.00;;;;;;;1.74;37.49;98525.22;5038109;28;20075;-61
2023/03/01 01:53:10;;;;;;;2.25;0.90;;;;;;;1.95;38.09;98519.97;5038523;28;20391;-62
2023/03/01 01:55:44;;;;;;;6.23;1.23;;;;;;;1.88;37.79;98522.25;5054521;28;20060;-61
2023/03/01 01:58:12;;;;;;;4.73;1.27;;;;;;;1.82;38.17;98533.25;5021200;28;20491;-61
2023/03/01 02:00:38;;;;;;;2.90;1.10;;;;;;;1.58;37.97;98524.88;5070885;28;20040;-63
2023/03/01 02:03:10;;;;;;;4.30;1.10;;;;;;;1.91;37.67;98519.38;5037739;28;20052;-64
2023/03/01 02:05:53;;;;;;;2.60;1.20;;;;;;;1.87;37.73;98520.63;5021101;28;20055;-63
2023/03/01 02:08:20;;;;;;;1.83;1.00;;;;;;;1.71;38.14;98528.09;5054325;28;20135;-63
2023/03/01 02:10:48;;;;;;;2.93;1.10;;;;;;;1.59;37.95;98518.66;5021084;28;20127;-63
2023/03/01 02:13:14;;;;;;;1.00;1.00;;;;;;;1.47;37.89;98520.56;5070918;28;20070;-63
2023/03/01 02:15:40;;;;;;;3.47;1.40;;;;;;;1.69;38.49;98522.19;5020696;28;20040;-64
2023/03/01 02:18:07;;;;;;;1.97;1.00;;;;;;;1.67;38.06;98526.72;5037278;28;20036;-64
2023/03/01 02:20:55;;;;;;;1.53;1.13;;;;;;;1.84;38.74;98514.81;5070729;28;20044;-63
2023/03/01 02:23:22;;;;;;;3.70;1.30;;;;;;;1.63;38.23;98520.06;5053888;28;20098;-63
2023/03/01 02:26:05;;;;;;;3.20;1.53;;;;;;;1.96;38.58;98506.72;5054076;28;20052;-61
2023/03/01 02:28:33;;;;;;;3.00;1.20;;;;;;;1.79;38.60;98515.19;5053826;28;20072;-64
2023/03/01 02:33:44;;;;;;;1.93;1.03;;;;;;;1.63;38.85;98512.22;5056332;28;20048;-62
2023/03/01 02:36:30;;;;;;;5.23;1.27;;;;;;;1.96;38.76;98519.81;5037318;28;20047;-60
2023/03/01 02:38:58;;;;;;;4.67;1.53;;;;;;;1.77;38.73;98517.09;5021001;28;20484;-61
2023/03/01 02:41:25;;;;;;;2.23;1.10;;;;;;;1.70;39.11;98523.84;5070628;28;20054;-65
2023/03/01 02:43:50;;;;;;;5.40;1.30;;;;;;;1.51;39.10;98532.41;5054164;28;20067;-62
2023/03/01 02:46:23;;;;;;;4.33;1.10;;;;;;;1.82;39.15;98525.41;5054092;28;20052;-61
2023/03/01 02:48:54;;;;;;;2.97;1.10;;;;;;;1.83;39.23;98532.28;5054013;28;20048;-60
2023/03/01 02:51:26;;;;;;;1.93;1.17;;;;;;;1.74;39.33;98538.31;5021104;28;20380;-62
2023/03/01 02:54:17;;;;;;;2.77;1.30;;;;;;;1.82;39.27;98533.25;5054089;28;20109;-61
2023/03/01 02:56:44;;;;;;;4.00;1.20;;;;;;;1.69;39.57;98527.41;5053755;28;20087;-62
2023/03/01 02:59:11;;;;;;;2.67;1.30;;;;;;;1.45;39.65;98527.69;5039704;28;20384;-62
2023/03/01 03:01:37;;;;;;;2.60;1.17;;;;;;;1.39;39.67;98536.03;5024678;28;20036;-65
2023/03/01 03:04:16;;;;;;;2.07;1.20;;;;;;;1.71;39.34;98533.34;5041475;28;20075;-63
2023/03/01 03:06:48;;;;;;;4.70;1.17;;;;;;;1.61;39.98;98533.28;5074826;28;20051;-62
2023/03/01 03:09:16;;;;;;;1.93;1.10;;;;;;;1.45;39.39;98525.06;5057474;28;20063;-63
2023/03/01 03:11:43;;;;;;;2.60;1.17;;;;;;;1.46;39.74;98528.53;5074352;28;20071;-61
2023/03/01 03:14:12;;;;;;;3.07;1.10;;;;;;;1.45;40.01;98526.84;5040953;28;20047;-63
2023/03/01 03:16:42;;;;;;;;;;;;;;;1.83;39.73;98534.91;5041493;28;20063;-64
2023/03/01 03:19:08;;;;;;;3.83;1.27;;;;;;;1.30;39.73;98536.81;5073706;28;20283;-60
2023/03/01 03:21:35;;;;;;;2.40;1.07;;;;;;;1.33;39.78;98530.50;5033361;28;20052;-61
2023/03/01 03:24:01;;;;;;;2.87;1.27;;;;;;;1.26;39.86;98542.44;5036451;28;20045;-62
2023/03/01 03:26:26;;;;;;;2.50;1.27;;;;;;;1.14;40.18;98543.41;5004356;28;20106;-61
2023/03/01 03:28:52;;;;;;;3.87;1.40;;;;;;;1.17;40.01;98535.34;5003914;28;20424;-59
2023/03/01 03:31:18;;;;;;;5.70;1.23;;;;;;;1.21;40.02;98531.50;5020162;28;20500;-60
2023/03/01 03:33:44;;;;;;;5.43;2.03;;;;;;;1.16;39.99;98534.50;5020166;28;20131;-63
2023/03/01 03:36:17;;;;;;;2.77;1.13;;;;;;;1.55;39.83;98535.59;5020261;28;20048;-59
2023/03/01 03:38:45;;;;;;;4.13;1.23;;;;;;;1.26;40.10;98542.44;5004008;28;20048;-60
2023/03/01 03:41:11;;;;;;;1.57;1.03;;;;;;;1.20;40.17;98535.09;5037198;28;20045;-61
2023/03/01 03:43:38;;;;;;;4.77;1.73;;;;;;;1.21;40.16;98537.56;5036772;28;20094;-57
2023/03/01 03:46:07;;;;;;;4.13;1.10;;;;;;;1.09;40.06;98545.59;5020082;28;20043;-61
2023/03/01 03:48:35;;;;;;;2.37;1.00;;;;;;;1.16;40.33;98539.72;5036803;28;20063;-60
2023/03/01 03:51:00;;;;;;;1.93;1.00;;;;;;;0.96;40.59;98535.31;5053149;28;20515;-59
2023/03/01 03:53:28;;;;;;;2.27;1.07;;;;;;;1.21;40.45;98544.59;5036550;28;20052;-59
2023/03/01 03:55:54;;;;;;;4.63;1.10;;;;;;;1.03;40.43;98546.09;5052771;28;20417;-61
2023/03/01 03:58:22;;;;;;;4.67;1.00;;;;;;;1.14;40.50;98549.47;5061293;28;20044;-63
2023/03/01 04:00:50;;;;;;;4.97;1.60;;;;;;;1.11;40.50;98551.50;5076173;28;20044;-63
2023/03/01 04:03:18;;;;;;;5.13;1.30;;;;;;;0.97;40.78;98546.59;5076296;28;20567;-62
2023/03/01 04:05:44;;;;;;;5.03;1.37;;;;;;;0.96;40.85;98542.31;5076303;28;20062;-64
2023/03/01 04:08:11;;;;;;;1.40;1.30;;;;;;;0.97;40.80;98549.22;5076299;28;20047;-59
2023/03/01 04:10:38;;;;;;;2.03;1.17;;;;;;;1.07;40.93;98542.28;5059302;28;20044;-63
2023/03/01 04:13:10;;;;;;;4.87;1.10;;;;;;;1.19;40.84;98547.31;5093327;28;20443;-61
2023/03/01 04:15:36;;;;;;;5.80;1.60;;;;;;;0.89;40.61;98552.44;5059327;28;20088;-56
2023/03/01 04:18:02;;;;;;;2.07;1.37;;;;;;;0.93;40.80;98556.47;5059118;28;20487;-60
2023/03/01 04:20:30;;;;;;;3.60;1.13;;;;;;;1.02;40.68;98545.25;5076249;28;20050;-64
2023/03/01 04:23:10;;;;;;;5.70;1.30;;;;;;;1.14;40.50;98551.25;5092799;28;20040;-60
2023/03/01 04:25:40;;;;;;;4.90;1.63;;;;;;;1.20;41.00;98562.06;5077057;28;20113;-62
2023/03/01 04:28:06;;;;;;;2.40;1.33;;;;;;;0.90;40.70;98566.34;5058854;28;20043;-64
2023/03/01 04:30:35;;;;;;;3.83;1.30;;;;;;;0.96;40.75;98573.69;5059087;28;20040;-64
2023/03/01 04:33:06;;;;;;;1.77;1.43;;;;;;;1.10;40.91;98560.31;5058989;28;20052;-64
2023/03/01 04:35:34;;;;;;;3.33;1.40;;;;;;;1.02;41.15;98575.78;5075600;28;20040;-62
2023/03/01 04:38:00;;;;;;;6.80;1.30;;;;;;;0.94;41.16;98570.38;5075462;28;20143;-62
2023/03/01 04:40:26;;;;;;;4.53;1.37;;;;;;;1.04;40.73;98573.88;5092303;28;20130;-65
2023/03/01 04:42:52;;;;;;;3.23;1.10;;;;;;;0.97;41.11;98577.97;5058507;28;20050;-65
2023/03/01 04:45:18;;;;;;;2.50;1.30;;;;;;;1.14;40.93;98580.00;5058645;28;20423;-62
2023/03/01 04:47:45;;;;;;;3.27;1.50;;;;;;;1.26;40.76;98581.66;5075502;28;20079;-62
2023/03/01 04:50:14;;;;;;;4.33;1.77;;;;;;;1.27;40.47;98583.31;5075242;28;20799;-64
2023/03/01 04:52:39;;;;;;;5.17;1.27;;;;;;;1.12;40.53;98580.13;5091821;28;20056;-64
2023/03/01 04:55:06;;;;;;;5.20;1.30;;;;;;;1.29;40.74;98586.63;5089348;28;20125;-63
2023/03/01 04:57:32;;;;;;;2.50;1.50;;;;;;;1.14;40.51;98582.63;5072794;28;20040;-66
2023/03/01 04:59:57;;;;;;;1.63;0.93;;;;;;;1.15;40.71;98579.09;5056206;28;20498;-61
2023/03/01 05:02:23;;;;;;;3.30;1.33;;;;;;;1.20;40.71;98571.69;5039463;28;20609;-63
2023/03/01 05:04:49;;;;;;;1.90;1.20;;;;;;;1.36;40.82;98578.16;5072719;28;20040;-63
2023/03/01 05:07:19;;;;;;;4.83;1.20;;;;;;;1.33;40.76;98588.03;5073519;28;20463;-63
2023/03/01 05:09:48;;;;;;;3.23;1.37;;;;;;;1.65;40.76;98579.19;5075379;28;20155;-63
2023/03/01 05:12:15;;;;;;;3.30;1.37;;;;;;;1.46;40.47;98579.03;5073822;28;20570;-63
2023/03/01 05:14:41;;;;;;;2.50;1.50;;;;;;;1.51;40.60;98595.19;5057926;28;20380;-60
2023/03/01 05:17:07;;;;;;;4.93;1.73;;;;;;;1.48;40.69;98586.75;5058222;28;20522;-62
2023/03/01 05:19:33;;;;;;;5.20;1.40;;;;;;;1.58;40.65;98590.28;5057602;28;20468;-60
2023/03/01 05:22:03;;;;;;;3.53;1.43;;;;;;;1.54;40.58;98594.94;5073466;28;20376;-63
2023/03/01 05:24:35;;;;;;;4.47;1.70;;;;;;;1.95;40.62;98594.09;5049885;28;20047;-62
2023/03/01 05:27:02;;;;;;;4.03;1.50;;;;;;;1.84;40.22;98582.84;5054779;28;20044;-60
2023/03/01 05:29:30;;;;;;;3.80;1.60;;;;;;;1.96;40.17;98600.97;5053365;28;20040;-60
2023/03/01 05:32:00;;;;;;;5.83;2.20;;;;;;;2.10;40.06;98600.66;5070719;28;20044;-62
2023/03/01 05:34:36;;;;;;;3.00;1.67;;;;;;;2.44;40.19;98599.41;5071196;28;20036;-61
2023/03/01 05:37:02;;;;;;;3.27;1.60;;;;;;;2.32;40.02;98605.69;5037723;28;20453;-65
2023/03/01 05:39:29;;;;;;;2.43;1.40;;;;;;;2.52;39.77;98612.66;5071087;28;20055;-61
2023/03/01 05:41:57;;;;;;;2.90;1.30;;;;;;;2.55;39.60;98609.78;5037363;28;20070;-62
2023/03/01 05:44:23;;;;;;;2.33;1.50;;;;;;;2.46;39.18;98623.69;5037581;28;20040;-63
2023/03/01 05:46:49;;;;;;;3.10;1.30;;;;;;;2.55;39.24;98622.06;5037252;28;20063;-63
2023/03/01 05:49:15;;;;;;;2.57;1.57;;;;;;;2.67;39.21;98621.00;5053003;28;20138;-61
2023/03/01 05:51:42;;;;;;;3.57;1.57;;;;;;;2.97;39.24;98627.00;5033045;28;20563;-60
2023/03/01 05:54:09;;;;;;;4.27;1.90;;;;;;;3.10;38.69;98619.72;5062819;28;20105;-59
2023/03/01 05:56:37;;;;;;;4.93;2.00;;;;;;;3.38;38.58;98624.16;5069831;28;20048;-56
2023/03/01 05:59:07;;;;;;;4.80;2.07;;;;;;;3.50;38.01;98632.72;5045851;28;20044;-56
2023/03/01 06:01:34;;;;;;;3.20;2.00;;;;;;;3.66;37.59;98629.56;5062129;28;20047;-60
2023/03/01 06:03:59;;;;;;;5.27;1.90;;;;;;;3.67;37.72;98636.44;5031026;28;20041;-61
2023/03/01 06:06:25;;;;;;;4.83;2.10;;;;;;;3.73;37.39;98626.22;5046041;28;20081;-57
2023/03/01 06:08:52;;;;;;;5.27;2.27;;;;;;;4.00;37.16;98638.63;5054712;28;20039;-59
2023/03/01 06:11:18;;;;;;;4.30;2.27;;;;;;;4.10;37.27;98644.69;5064408;28;20055;-57
2023/03/01 06:13:44;;;;;;;4.60;2.13;;;;;;;4.25;36.36;98641.47;5057747;28;20040;-62
2023/03/01 06:16:10;;;;;;;4.80;2.00;;;;;;;4.18;35.96;98644.81;5013337;28;20547;-57
2023/03/01 06:18:37;;;;;;;4.27;2.03;;;;;;;4.36;36.52;98643.94;5065464;28;20039;-58
2023/03/01 06:21:03;;;;;;;4.50;2.00;;;;;;;4.40;36.43;98654.97;5061901;28;20127;-62
2023/03/01 06:23:29;;;;;;;5.10;1.80;;;;;;;4.52;36.14;98654.66;5039785;28;20544;-59
2023/03/01 06:25:55;;;;;;;3.93;1.93;;;;;;;4.53;36.29;98652.84;5044744;28;20059;-63
2023/03/01 06:28:21;;;;;;;5.67;2.70;;;;;;;4.68;35.93;98639.09;5044811;28;20558;-58
2023/03/01 06:30:48;;;;;;;4.87;2.00;;;;;;;4.79;35.78;98661.75;5062062;28;20036;-59
2023/03/01 06:33:13;;;;;;;6.43;1.90;;;;;;;4.94;36.02;98660.28;5045971;28;20044;-59
2023/03/01 06:35:39;;;;;;;7.00;1.73;;;;;;;4.92;35.74;98646.47;5030603;28;20043;-60
2023/03/01 06:38:05;;;;;;;3.83;1.90;;;;;;;5.25;35.58;98672.16;5053494;28;20082;-60
2023/03/01 06:40:32;;;;;;;3.50;1.80;;;;;;;5.23;35.06;98638.09;5029652;28;20047;-59
2023/03/01 06:42:58;;;;;;;4.30;2.00;;;;;;;5.55;36.13;98665.72;5052785;28;20557;-62
2023/03/01 06:45:24;;;;;;;3.00;1.87;;;;;;;5.64;36.65;98656.91;5041346;28;20043;-60
2023/03/01 06:47:50;;;;;;;3.23;1.90;;;;;;;5.77;34.97;98674.00;5035617;28;20083;-61
2023/03/01 06:50:17;;;;;;;6.67;2.27;;;;;;;5.89;35.59;98654.34;5052814;28;20072;-59
2023/03/01 06:52:46;;;;;;;3.83;1.87;;;;;;;5.97;35.21;98672.03;5036742;28;20040;-59
2023/03/01 06:55:12;;;;;;;5.47;1.93;;;;;;;6.19;35.62;98680.31;5036888;28;20048;-58
2023/03/01 06:57:38;;;;;;;4.77;1.73;;;;;;;6.18;34.86;98685.72;5053132;28;20079;-59
2023/03/01 07:00:05;;;;;;;6.97;2.27;;;;;;;6.50;34.28;98678.84;5019361;28;20079;-57
2023/03/01 07:02:34;;;;;;;8.57;2.43;;;;;;;6.58;34.01;98678.09;5069578;28;20037;-64
2023/03/01 07:05:00;;;;;;;5.93;2.43;;;;;;;6.84;34.16;98669.13;5069508;28;20551;-59
2023/03/01 07:07:26;;;;;;;4.67;1.93;;;;;;;7.06;34.06;98666.94;5052880;28;20484;-58
2023/03/01 07:09:53;;;;;;;6.47;2.30;;;;;;;7.23;33.79;98674.75;5019291;28;20055;-58
2023/03/01 07:12:18;;;;;;;5.93;1.77;;;;;;;7.37;33.25;98681.22;5052868;28;20036;-61
2023/03/01 07:14:44;;;;;;;6.07;2.17;;;;;;;7.51;33.75;98670.03;5053374;28;20127;-58
2023/03/01 07:17:10;;;;;;;3.83;2.00;;;;;;;7.63;32.83;98681.94;5020205;28;20460;-59
2023/03/01 07:19:36;;;;;;;4.13;1.97;;;;;;;7.51;32.05;98673.50;5035253;28;20488;-59
2023/03/01 07:22:04;;;;;;;5.20;2.00;;;;;;;8.02;31.80;98683.81;5036090;28;20168;-60
2023/03/01 07:24:29;;;;;;;6.63;1.90;;;;;;;8.43;31.44;98681.97;5060045;28;20044;-58
2023/03/01 07:26:55;;;;;;;3.90;1.90;;;;;;;9.78;30.19;98698.31;5035268;28;20109;-58
2023/03/01 07:29:21;;;;;;;2.50;1.40;;;;;;;11.59;28.79;98671.25;5053081;28;20047;-58
2023/03/01 07:31:47;;;;;;;5.93;1.33;;;;;;;13.58;26.38;98684.69;5035829;28;20097;-64
2023/03/01 07:34:12;;;;;;;4.40;1.60;;;;;;;14.80;24.00;98686.91;5036634;28;20106;-60
2023/03/01 07:36:39;;;;;;;7.65;1.60;;;;;;;15.83;22.65;98678.75;5053432;28;20048;-62
2023/03/01 07:39:05;;;;;;;3.47;1.63;;;;;;;16.71;21.50;98694.63;5036719;28;20040;-62
2023/03/01 07:41:30;;;;;;;5.07;1.90;;;;;;;18.24;20.57;98683.50;5036773;28;20101;-60
2023/03/01 07:43:56;;;;;;;4.85;1.45;;;;;;;20.36;19.26;98682.56;5053631;28;20097;-61
2023/03/01 07:46:22;;;;;;;6.05;1.50;;;;;;;22.44;16.48;98689.44;5040304;28;20048;-61
2023/03/01 07:48:48;;;;;;;2.42;1.60;;;;;;;24.65;14.80;98686.00;5039940;28;20385;-59
2023/03/01 07:51:13;;;;;;;3.33;1.55;;;;;;;25.66;13.52;98675.75;5040271;28;20147;-61
2023/03/01 07:53:39;;;;;;;3.30;1.70;;;;;;;26.74;12.60;98690.09;5023425;28;20480;-62
2023/03/01 07:56:12;;;;;;;3.25;1.38;;;;;;;28.40;11.34;98685.50;5056562;28;20584;-63
2023/03/01 07:58:41;;;;;;;4.47;1.42;;;;;;;29.13;10.50;98684.59;5039814;28;20048;-62
2023/03/01 08:01:11;;;;;;;5.53;1.90;;;;;;;30.26;10.00;98672.72;5056515;28;20045;-63
2023/03/01 08:03:37;;;;;;;3.88;1.70;;;;;;;30.88;8.77;98685.50;5023256;28;20040;-63
2023/03/01 08:06:05;;;;;;;7.97;2.00;;;;;;;31.41;8.83;98660.00;5056083;28;20365;-63
2023/03/01 08:08:31;;;;;;;3.38;1.80;;;;;;;31.76;8.51;98656.22;5056309;28;20060;-61
2023/03/01 08:11:01;;;;;;;4.20;1.65;;;;;;;31.55;8.53;98660.69;5056167;28;20401;-62
2023/03/01 08:13:27;;;;;;;4.22;1.77;;;;;;;31.09;8.33;98661.13;5073444;28;20373;-63
2023/03/01 08:15:53;;;;;;;5.82;2.08;;;;;;;31.39;8.15;98675.97;5055928;28;20052;-61
2023/03/01 08:18:20;;;;;;;4.05;1.70;;;;;;;32.04;8.00;98671.34;5039464;28;20072;-62
2023/03/01 08:20:46;;;;;;;5.55;1.77;;;;;;;32.67;7.87;98672.34;5072608;28;20036;-62
2023/03/01 08:23:12;;;;;;;3.05;1.48;;;;;;;31.77;8.13;98664.16;5056030;28;20384;-61
2023/03/01 08:25:38;;;;;;;7.97;1.70;;;;;;;32.08;7.75;98673.13;5056055;28;20189;-61
2023/03/01 08:28:05;;;;;;;6.25;1.70;;;;;;;32.29;7.24;98678.81;5039137;28;20059;-62
2023/03/01 08:30:30;;;;;;;6.55;1.83;;;;;;;31.40;7.90;98672.09;5056205;28;20554;-61
2023/03/01 08:32:56;;;;;;;3.22;1.67;;;;;;;31.94;7.41;98672.47;5039063;28;20131;-60
2023/03/01 08:35:22;;;;;;;6.25;1.70;;;;;;;32.42;7.33;98670.44;5056115;28;20131;-61
2023/03/01 08:37:48;;;;;;;7.85;1.90;;;;;;;32.59;6.99;98673.19;5055880;28;20130;-63
2023/03/01 08:40:14;;;;;;;3.60;1.60;;;;;;;32.73;6.76;98664.75;5055863;28;20040;-62
2023/03/01 08:42:42;;;;;;;2.47;1.50;;;;;;;32.37;6.88;98669.78;5055545;28;20040;-60
2023/03/01 08:45:09;;;;;;;2.55;1.90;;;;;;;32.01;6.89;98667.31;5039176;28;20055;-62
2023/03/01 08:47:35;;;;;;;4.88;1.80;;;;;;;31.50;6.89;98667.16;5022759;28;20068;-61
2023/03/01 08:50:00;;;;;;;3.53;1.80;;;;;;;32.00;6.89;98660.19;5055942;28;20138;-62
2023/03/01 08:52:26;;;;;;;3.90;1.65;;;;;;;32.56;6.52;98673.84;5055696;28;20400;-62
2023/03/01 08:54:52;;;;;;;3.42;1.65;;;;;;;33.23;6.34;98673.28;5038510;28;20088;-61
2023/03/01 08:57:18;;;;;;;4.07;1.65;;;;;;;33.89;6.08;98662.31;5038372;28;20459;-63
2023/03/01 08:59:44;;;;;;;2.33;1.75;;;;;;;34.05;5.97;98673.56;5038512;28;20120;-63
2023/03/01 09:02:15;;;;;;;2.83;1.40;;;;;;;34.18;5.92;98678.81;5053239;28;20124;-64
2023/03/01 09:04:41;;;;;;;5.00;1.50;;;;;;;34.40;5.84;98672.19;5020831;28;20110;-64
2023/03/01 09:07:07;;;;;;;4.85;1.27;;;;;;;33.70;5.49;98672.13;5053598;28;20539;-64
2023/03/01 09:09:33;;;;;;;1.75;1.02;;;;;;;33.31;5.82;98686.16;5072763;28;20047;-62
2023/03/01 09:11:58;;;;;;;2.92;1.45;;;;;;;33.58;5.65;98688.53;5054175;28;20040;-62
2023/03/01 09:14:24;;;;;;;5.80;1.15;;;;;;;33.27;5.85;98679.72;5055052;28;20098;-63
2023/03/01 09:16:50;;;;;;;3.65;1.60;;;;;;;32.60;6.28;98673.97;5054997;28;20055;-63
2023/03/01 09:19:16;;;;;;;4.40;1.35;;;;;;;33.40;6.02;98668.53;5071611;28;20041;-64
2023/03/01 09:21:51;;;;;;;2.10;1.38;;;;;;;34.65;5.65;98684.97;5072410;28;20045;-63
2023/03/01 09:24:21;;;;;;;5.38;1.30;;;;;;;35.36;5.07;98680.88;5060630;28;20390;-62
2023/03/01 09:26:47;;;;;;;4.20;1.65;;;;;;;34.95;5.01;98680.16;5074688;28;20051;-64
2023/03/01 09:29:16;;;;;;;3.50;1.30;;;;;;;35.25;5.06;98679.66;5074799;28;20051;-64
2023/03/01 09:31:42;;;;;;;3.42;1.10;;;;;;;35.01;4.91;98678.81;5075015;28;20054;-64
2023/03/01 09:34:08;;;;;;;7.40;1.60;;;;;;;33.33;5.92;98667.38;5092229;28;20047;-62
2023/03/01 09:36:34;;;;;;;4.82;1.30;;;;;;;32.71;6.15;98658.00;5074521;28;20430;-62
2023/03/01 09:39:01;;;;;;;3.85;1.52;;;;;;;31.50;6.60;98663.56;5041678;28;20146;-62
2023/03/01 09:41:51;;;;;;;4.80;1.80;;;;;;;32.50;6.10;98658.66;5074905;28;20509;-63
2023/03/01 09:44:17;;;;;;;;;;;;;;;33.37;5.58;98662.81;5075061;28;20090;-62
2023/03/01 09:46:45;;;;;;;4.20;1.58;;;;;;;34.13;5.56;98658.91;5074716;28;19955;-63
2023/03/01 09:49:16;;;;;;;4.45;1.50;;;;;;;32.81;5.99;98654.88;5074311;28;20130;-64
2023/03/01 09:51:48;;;;;;;4.80;1.80;;;;;;;31.94;6.34;98664.22;5042089;28;20048;-63
2023/03/01 09:54:14;;;;;;;5.72;1.75;;;;;;;30.80;6.80;98652.53;5057821;28;20275;-60
2023/03/01 09:56:57;;;;;;;7.78;1.77;;;;;;;30.18;7.08;98653.47;5057348;28;20454;-61
2023/03/01 09:59:52;;;;;;;3.38;1.45;;;;;;;30.35;6.58;98661.84;5074449;28;20511;-63
2023/03/01 10:02:48;;;;;;;2.00;1.40;;;;;;;29.28;7.26;98665.16;5084612;28;20052;-62
2023/03/01 10:05:25;;;;;;;3.95;1.35;;;;;;;28.23;7.87;98657.91;5074087;28;20404;-61
2023/03/01 10:08:20;;;;;;;3.92;1.50;;;;;;;27.75;7.93;98654.44;5090933;28;20344;-61
2023/03/01 10:10:47;;;;;;;5.07;1.20;;;;;;;26.67;8.68;98662.41;5092018;28;20383;-63
2023/03/01 10:13:24;;;;;;;3.90;1.65;;;;;;;26.34;8.90;98663.97;5073672;28;20044;-61
2023/03/01 10:16:01;;;;;;;5.05;2.03;;;;;;;27.55;8.80;98660.16;5092109;28;20055;-62
2023/03/01 10:18:30;;;;;;;5.70;1.70;;;;;;;27.65;8.37;98674.47;5058047;28;20044;-60
2023/03/01 10:21:01;;;;;;;3.28;1.60;;;;;;;28.37;7.91;98673.22;5053531;28;20201;-61
2023/03/01 10:23:30;;;;;;;3.58;1.45;;;;;;;28.31;7.97;98679.88;5021273;28;20044;-63
2023/03/01 10:26:15;;;;;;;3.45;1.25;;;;;;;26.17;8.64;98665.47;5037537;28;20040;-62
2023/03/01 10:28:54;;;;;;;5.25;1.70;;;;;;;23.51;9.80;98665.56;5037016;28;20040;-59
2023/03/01 10:31:27;;;;;;;4.93;1.75;;;;;;;20.95;11.56;98664.88;5052930;28;20479;-57
2023/03/01 10:33:55;;;;;;;3.33;1.20;;;;;;;19.98;11.99;98671.59;5077747;28;20039;-60
2023/03/01 10:36:24;;;;;;;2.22;1.00;;;;;;;19.02;13.08;98671.47;5060569;28;20046;-60
2023/03/01 10:38:56;;;;;;;5.72;1.35;;;;;;;17.99;14.10;98672.13;5111019;28;20047;-59
2023/03/01 10:41:24;;;;;;;2.55;1.02;;;;;;;17.20;14.36;98680.31;5094102;28;20543;-59
2023/03/01 10:43:56;;;;;;;2.92;1.17;;;;;;;16.77;15.20;98671.47;5094145;28;20048;-59
2023/03/01 10:46:33;;;;;;;2.60;1.17;;;;;;;16.92;15.31;98685.34;5094286;28;20044;-58
2023/03/01 10:49:14;;;;;;;3.67;1.40;;;;;;;17.15;15.13;98690.06;5094123;28;20309;-60
2023/03/01 10:51:42;;;;;;;7.70;1.80;;;;;;;16.61;15.45;98688.09;5094132;28;20126;-57
2023/03/01 10:54:26;;;;;;;2.17;1.40;;;;;;;18.45;14.97;98688.41;5078719;28;20458;-59
2023/03/01 10:57:24;;;;;;;3.08;1.08;;;;;;;19.81;13.79;98693.13;5023988;28;20048;-59
2023/03/01 11:00:04;;;;;;;3.20;1.33;;;;;;;19.17;13.66;98690.66;5056475;28;20055;-60
2023/03/01 11:02:33;;;;;;;5.60;1.55;;;;;;;20.00;13.32;98678.38;5075130;28;20044;-60
2023/03/01 11:05:20;;;;;;;3.40;1.30;;;;;;;20.28;12.58;98674.06;5091483;28;20059;-59
2023/03/01 11:07:57;;;;;;;6.30;1.52;;;;;;;19.67;13.31;98685.53;5073679;28;20040;-60
2023/03/01 11:10:27;;;;;;;2.38;1.23;;;;;;;19.07;13.58;98693.09;5055841;28;20051;-61
2023/03/01 11:13:04;;;;;;;2.70;1.38;;;;;;;18.91;13.93;98695.69;5056132;28;20105;-60
2023/03/01 11:15:30;;;;;;;7.00;1.25;;;;;;;19.31;13.31;98675.91;5057242;28;20472;-59
2023/03/01 11:17:56;;;;;;;2.47;1.30;;;;;;;18.89;13.61;98695.94;5056767;28;20097;-62
2023/03/01 11:20:36;;;;;;;3.42;1.27;;;;;;;18.15;13.91;98688.41;5059664;28;20055;-60
2023/03/01 11:23:09;;;;;;;2.95;1.20;;;;;;;16.84;15.10;98683.78;5077357;28;20054;-59
2023/03/01 11:25:41;;;;;;;1.40;1.02;;;;;;;16.08;15.58;98684.97;5059463;28;20052;-58
2023/03/01 11:28:13;;;;;;;2.03;1.20;;;;;;;14.85;16.68;98672.91;5077195;28;20460;-59
2023/03/01 11:31:01;;;;;;;4.95;1.50;;;;;;;14.81;17.25;98685.03;5060807;28;20124;-61
2023/03/01 11:33:45;;;;;;;5.13;2.00;;;;;;;16.36;16.74;98688.06;5060420;28;20040;-56
2023/03/01 11:37:02;;;;;;;3.85;1.65;;;;;;;16.53;15.91;98691.88;5094544;28;20456;-59
2023/03/01 11:39:37;;;;;;;2.67;1.50;;;;;;;18.08;14.83;98678.81;5028728;28;20130;-61
2023/03/01 11:42:13;;;;;;;3.72;1.55;;;;;;;17.98;14.62;98687.41;5060177;28;20075;-64
2023/03/01 11:44:40;;;;;;;4.47;1.33;;;;;;;17.36;15.19;98690.44;5043565;28;20135;-63
2023/03/01 11:47:28;;;;;;;6.40;1.88;;;;;;;16.08;16.28;98692.19;5059932;28;20036;-64
2023/03/01 11:50:25;;;;;;;4.47;1.60;;;;;;;15.39;17.15;98694.78;5076601;28;20079;-64
2023/03/01 11:53:28;;;;;;;5.93;2.00;;;;;;;16.15;16.73;98692.97;5059798;28;20048;-64
2023/03/01 11:55:56;;;;;;;2.92;1.70;;;;;;;16.90;16.22;98708.88;5059646;28;20052;-64